createdAt,value
2022-10-25T00:00:09.052Z,36.00
2022-10-25T00:00:54.124Z,36.00
2022-10-25T00:01:39.251Z,36.00
2022-10-25T00:02:24.663Z,36.00
2022-10-25T00:03:09.286Z,36.00
2022-10-25T00:03:54.394Z,35.99
2022-10-25T00:04:39.602Z,35.99
2022-10-25T00:05:24.545Z,35.99
2022-10-25T00:06:09.530Z,35.99
2022-10-25T00:06:54.763Z,35.99
2022-10-25T00:07:39.752Z,35.99
2022-10-25T00:08:24.880Z,35.99
2022-10-25T00:09:09.831Z,35.99
2022-10-25T00:09:54.990Z,35.99
2022-10-25T00:10:39.942Z,35.99
2022-10-25T00:11:25.103Z,35.99
2022-10-25T00:12:09.954Z,35.99
2022-10-25T00:12:55.032Z,35.99
2022-10-25T00:13:40.167Z,35.99
2022-10-25T00:14:25.366Z,35.99
2022-10-25T00:15:10.123Z,35.99
2022-10-25T00:15:55.235Z,35.99
2022-10-25T00:16:40.353Z,35.99
2022-10-25T00:17:25.276Z,35.99
2022-10-25T00:18:10.816Z,35.99
2022-10-25T00:18:55.236Z,35.99
2022-10-25T00:19:40.249Z,35.99
2022-10-25T00:20:25.494Z,35.99
2022-10-25T00:21:10.632Z,35.99
2022-10-25T00:21:55.704Z,35.99
2022-10-25T00:22:41.153Z,35.99
2022-10-25T00:23:26.262Z,35.99
2022-10-25T00:24:10.904Z,35.99
2022-10-25T00:24:56.009Z,35.99
2022-10-25T00:25:40.994Z,35.99
2022-10-25T00:26:26.130Z,35.99
2022-10-25T00:27:11.388Z,35.99
2022-10-25T00:27:56.136Z,35.99
2022-10-25T00:28:41.207Z,35.99
2022-10-25T00:29:26.457Z,35.99
2022-10-25T00:30:11.384Z,35.99
2022-10-25T00:30:56.419Z,35.99
2022-10-25T00:31:41.257Z,35.99
2022-10-25T00:32:25.898Z,35.99
2022-10-25T00:33:11.433Z,35.99
2022-10-25T00:33:56.633Z,35.99
2022-10-25T00:34:41.748Z,35.99
2022-10-25T00:35:26.380Z,35.99
2022-10-25T00:36:12.067Z,35.99
2022-10-25T00:36:56.932Z,35.99
2022-10-25T00:37:41.804Z,35.99
2022-10-25T00:38:26.727Z,35.99
2022-10-25T00:39:12.294Z,35.99
2022-10-25T00:39:57.293Z,35.99
2022-10-25T00:40:42.318Z,35.99
2022-10-25T00:41:27.156Z,35.99
2022-10-25T00:42:12.209Z,35.99
2022-10-25T00:42:57.064Z,35.99
2022-10-25T00:43:42.220Z,35.99
2022-10-25T00:44:27.888Z,35.99
2022-10-25T00:45:12.463Z,35.99
2022-10-25T00:45:57.436Z,35.99
2022-10-25T00:46:42.445Z,35.99
2022-10-25T00:47:28.114Z,35.99
2022-10-25T00:48:13.012Z,35.99
2022-10-25T00:48:57.579Z,35.99
2022-10-25T00:49:43.082Z,35.99
2022-10-25T00:50:28.090Z,35.99
2022-10-25T00:51:13.195Z,35.99
2022-10-25T00:51:58.017Z,35.99
2022-10-25T00:52:43.099Z,35.99
2022-10-25T00:53:28.466Z,35.99
2022-10-25T00:54:13.454Z,35.99
2022-10-25T00:54:58.473Z,35.99
2022-10-25T00:55:43.431Z,35.99
2022-10-25T00:56:28.790Z,35.99
2022-10-25T00:57:13.152Z,35.99
2022-10-25T00:57:58.597Z,35.99
2022-10-25T00:58:43.448Z,35.99
2022-10-25T00:59:28.759Z,35.99
2022-10-25T01:00:13.684Z,35.99
2022-10-25T01:00:59.028Z,35.99
2022-10-25T01:01:44.007Z,35.99
2022-10-25T01:02:28.813Z,35.99
2022-10-25T01:03:13.792Z,35.99
2022-10-25T01:03:58.975Z,35.99
2022-10-25T01:04:44.109Z,35.99
2022-10-25T01:05:29.165Z,35.99
2022-10-25T01:06:14.015Z,35.99
2022-10-25T01:06:59.380Z,35.99
2022-10-25T01:07:44.387Z,35.99
2022-10-25T01:08:29.093Z,35.99
2022-10-25T01:09:14.470Z,35.99
2022-10-25T01:09:59.522Z,35.99
2022-10-25T01:10:44.456Z,35.99
2022-10-25T01:11:29.286Z,35.99
2022-10-25T01:12:14.367Z,35.98
2022-10-25T01:12:59.692Z,35.99
2022-10-25T01:13:44.791Z,35.99
2022-10-25T01:14:29.554Z,35.99
2022-10-25T01:15:14.523Z,35.99
2022-10-25T01:15:59.652Z,35.99
2022-10-25T01:16:44.838Z,35.99
2022-10-25T01:17:29.819Z,35.99
2022-10-25T01:18:14.644Z,35.99
2022-10-25T01:18:59.767Z,35.99
2022-10-25T01:19:45.652Z,35.99
2022-10-25T01:20:29.900Z,35.99
2022-10-25T01:21:15.064Z,35.99
2022-10-25T01:22:00.100Z,35.91
2022-10-25T01:22:45.653Z,35.91
2022-10-25T01:23:30.029Z,35.99
2022-10-25T01:24:15.165Z,35.99
2022-10-25T01:25:00.219Z,35.99
2022-10-25T01:25:45.482Z,35.99
2022-10-25T01:26:30.535Z,35.98
2022-10-25T01:27:15.391Z,35.99
2022-10-25T01:28:00.449Z,35.98
2022-10-25T01:28:45.298Z,35.99
2022-10-25T01:29:30.766Z,35.99
2022-10-25T01:30:15.819Z,35.99
2022-10-25T01:31:00.576Z,35.99
2022-10-25T01:31:45.830Z,35.99
2022-10-25T01:32:30.610Z,35.99
2022-10-25T01:33:15.637Z,35.99
2022-10-25T01:34:01.013Z,35.99
2022-10-25T01:34:45.855Z,35.99
2022-10-25T01:35:30.906Z,35.98
2022-10-25T01:36:16.071Z,35.99
2022-10-25T01:37:01.225Z,35.98
2022-10-25T01:37:46.397Z,35.99
2022-10-25T01:38:30.928Z,35.99
2022-10-25T01:39:16.187Z,35.99
2022-10-25T01:40:01.449Z,35.99
2022-10-25T01:40:46.302Z,35.99
2022-10-25T01:41:31.358Z,35.99
2022-10-25T01:42:16.719Z,35.99
2022-10-25T01:43:01.692Z,35.99
2022-10-25T01:43:46.634Z,35.99
2022-10-25T01:44:31.233Z,35.99
2022-10-25T01:45:16.588Z,35.99
2022-10-25T01:46:01.910Z,35.99
2022-10-25T01:46:46.847Z,35.99
2022-10-25T01:47:32.063Z,35.99
2022-10-25T01:48:16.764Z,35.99
2022-10-25T01:49:01.727Z,35.99
2022-10-25T01:49:46.910Z,35.98
2022-10-25T01:50:31.932Z,35.99
2022-10-25T01:51:17.091Z,35.98
2022-10-25T01:52:01.906Z,35.99
2022-10-25T01:52:47.062Z,35.99
2022-10-25T01:53:32.295Z,35.99
2022-10-25T01:54:17.217Z,35.99
2022-10-25T01:55:02.176Z,35.99
2022-10-25T01:55:47.036Z,35.99
2022-10-25T01:56:32.386Z,35.99
2022-10-25T01:57:17.443Z,35.99
2022-10-25T01:58:02.500Z,35.99
2022-10-25T01:58:47.753Z,35.99
2022-10-25T01:59:32.611Z,35.99
2022-10-25T02:00:17.577Z,35.99
2022-10-25T02:01:02.595Z,35.99
2022-10-25T02:01:47.782Z,35.99
2022-10-25T02:02:32.682Z,35.99
2022-10-25T02:03:17.786Z,35.86
2022-10-25T02:04:02.747Z,35.86
2022-10-25T02:04:47.798Z,35.99
2022-10-25T02:05:32.958Z,35.99
2022-10-25T02:06:18.025Z,35.99
2022-10-25T02:07:03.084Z,35.98
2022-10-25T02:07:48.029Z,35.98
2022-10-25T02:08:33.297Z,35.99
2022-10-25T02:09:18.242Z,35.99
2022-10-25T02:10:03.278Z,35.99
2022-10-25T02:10:48.152Z,35.99
2022-10-25T02:11:33.622Z,35.99
2022-10-25T02:12:18.572Z,35.99
2022-10-25T02:13:03.522Z,35.99
2022-10-25T02:13:48.476Z,35.99
2022-10-25T02:14:33.429Z,35.99
2022-10-25T02:15:18.899Z,35.99
2022-10-25T02:16:03.748Z,35.99
2022-10-25T02:16:48.704Z,35.99
2022-10-25T02:17:34.268Z,35.99
2022-10-25T02:18:18.951Z,35.99
2022-10-25T02:19:04.285Z,35.98
2022-10-25T02:19:48.829Z,35.99
2022-10-25T02:20:33.885Z,35.99
2022-10-25T02:21:19.361Z,35.99
2022-10-25T02:22:04.209Z,35.99
2022-10-25T02:22:49.340Z,35.99
2022-10-25T02:23:34.415Z,35.99
2022-10-25T02:24:19.577Z,35.99
2022-10-25T02:25:04.285Z,35.99
2022-10-25T02:25:49.238Z,35.99
2022-10-25T02:26:34.741Z,35.98
2022-10-25T02:27:19.704Z,35.99
2022-10-25T02:28:04.648Z,35.99
2022-10-25T02:28:50.020Z,35.99
2022-10-25T02:29:34.964Z,35.99
2022-10-25T02:30:19.923Z,35.99
2022-10-25T02:31:05.081Z,35.99
2022-10-25T02:31:50.035Z,35.99
2022-10-25T02:32:34.992Z,35.98
2022-10-25T02:33:20.354Z,35.98
2022-10-25T02:34:05.038Z,35.99
2022-10-25T02:34:50.365Z,35.99
2022-10-25T02:35:35.319Z,35.99
2022-10-25T02:36:20.118Z,35.99
2022-10-25T02:37:05.248Z,35.99
2022-10-25T02:37:50.526Z,35.99
2022-10-25T02:38:35.652Z,35.99
2022-10-25T02:39:20.600Z,35.99
2022-10-25T02:40:05.554Z,35.99
2022-10-25T02:40:50.607Z,35.99
2022-10-25T02:41:35.791Z,35.99
2022-10-25T02:42:20.842Z,35.99
2022-10-25T02:43:05.604Z,35.99
2022-10-25T02:43:51.141Z,35.99
2022-10-25T02:44:35.899Z,35.99
2022-10-25T02:45:21.330Z,35.99
2022-10-25T02:46:06.109Z,35.99
2022-10-25T02:46:51.364Z,35.99
2022-10-25T02:47:36.116Z,35.98
2022-10-25T02:48:21.544Z,35.99
2022-10-25T02:49:06.232Z,35.99
2022-10-25T02:49:51.231Z,35.99
2022-10-25T02:50:36.551Z,35.99
2022-10-25T02:51:21.574Z,35.99
2022-10-25T02:52:06.453Z,35.99
2022-10-25T02:52:51.408Z,35.99
2022-10-25T02:53:36.773Z,35.99
2022-10-25T02:54:21.830Z,35.99
2022-10-25T02:55:06.559Z,35.99
2022-10-25T02:55:51.844Z,35.99
2022-10-25T02:56:36.801Z,35.99
2022-10-25T02:57:21.930Z,35.99
2022-10-25T02:58:07.010Z,35.99
2022-10-25T02:58:52.068Z,35.99
2022-10-25T02:59:37.024Z,35.99
2022-10-25T03:00:22.122Z,35.99
2022-10-25T03:01:06.967Z,35.99
2022-10-25T03:01:52.029Z,35.99
2022-10-25T03:02:37.352Z,35.99
2022-10-25T03:03:22.135Z,35.99
2022-10-25T03:04:07.101Z,35.99
2022-10-25T03:04:52.213Z,35.99
2022-10-25T03:05:37.577Z,35.98
2022-10-25T03:06:22.529Z,35.99
2022-10-25T03:07:07.378Z,35.99
2022-10-25T03:07:52.335Z,35.98
2022-10-25T03:08:37.601Z,35.99
2022-10-25T03:09:22.771Z,35.99
2022-10-25T03:10:07.742Z,35.99
2022-10-25T03:10:52.766Z,35.99
2022-10-25T03:11:37.822Z,35.98
2022-10-25T03:12:23.088Z,35.99
2022-10-25T03:13:07.937Z,35.99
2022-10-25T03:13:53.097Z,35.99
2022-10-25T03:14:38.560Z,35.99
2022-10-25T03:15:23.101Z,35.99
2022-10-25T03:16:08.197Z,35.99
2022-10-25T03:16:53.215Z,35.99
2022-10-25T03:17:38.123Z,35.99
2022-10-25T03:18:23.433Z,35.99
2022-10-25T03:19:10.031Z,35.99
2022-10-25T03:19:53.239Z,35.99
2022-10-25T03:20:38.703Z,35.97
2022-10-25T03:21:24.165Z,35.97
2022-10-25T03:22:08.995Z,35.97
2022-10-25T03:22:53.769Z,35.99
2022-10-25T03:23:38.927Z,35.99
2022-10-25T03:24:23.986Z,35.51
2022-10-25T03:25:56.169Z,35.10
2022-10-25T03:26:39.667Z,35.10
2022-10-25T03:27:24.312Z,35.10
2022-10-25T03:28:09.309Z,35.10
2022-10-25T03:28:54.529Z,35.10
2022-10-25T03:29:39.374Z,35.10
2022-10-25T03:30:24.595Z,35.10
2022-10-25T03:31:09.127Z,35.10
2022-10-25T03:31:54.447Z,35.10
2022-10-25T03:32:39.612Z,35.10
2022-10-25T03:33:24.589Z,35.10
2022-10-25T03:34:09.110Z,35.99
2022-10-25T03:34:54.627Z,35.99
2022-10-25T03:35:39.425Z,35.99
2022-10-25T03:36:25.610Z,35.99
2022-10-25T03:37:10.052Z,35.99
2022-10-25T03:37:54.903Z,35.99
2022-10-25T03:38:39.853Z,35.99
2022-10-25T03:39:25.524Z,35.99
2022-10-25T03:40:10.066Z,35.99
2022-10-25T03:40:54.716Z,35.99
2022-10-25T03:41:39.976Z,35.99
2022-10-25T03:42:25.541Z,35.99
2022-10-25T03:43:10.059Z,35.99
2022-10-25T03:43:55.041Z,35.99
2022-10-25T03:44:40.102Z,35.99
2022-10-25T03:45:25.260Z,35.99
2022-10-25T03:46:10.288Z,35.99
2022-10-25T03:46:55.367Z,35.99
2022-10-25T03:47:40.394Z,35.99
2022-10-25T03:48:25.998Z,35.99
2022-10-25T03:49:10.438Z,35.99
2022-10-25T03:49:55.698Z,35.99
2022-10-25T03:50:40.647Z,35.99
2022-10-25T03:51:25.918Z,35.99
2022-10-25T03:52:10.455Z,35.99
2022-10-25T03:52:55.712Z,35.99
2022-10-25T03:53:40.879Z,35.99
2022-10-25T03:54:29.091Z,35.99
2022-10-25T03:55:10.899Z,35.99
2022-10-25T03:55:56.048Z,35.99
2022-10-25T03:56:41.113Z,35.99
2022-10-25T03:57:26.156Z,35.99
2022-10-25T03:58:11.114Z,35.99
2022-10-25T03:58:56.009Z,35.99
2022-10-25T03:59:40.920Z,35.98
2022-10-25T04:00:26.290Z,35.98
2022-10-25T04:01:11.380Z,35.98
2022-10-25T04:01:56.331Z,35.98
2022-10-25T04:02:41.490Z,35.98
2022-10-25T04:03:26.199Z,35.99
2022-10-25T04:04:11.974Z,35.99
2022-10-25T04:04:56.557Z,35.99
2022-10-25T04:05:41.889Z,35.99
2022-10-25T04:06:27.043Z,35.99
2022-10-25T04:07:11.788Z,35.99
2022-10-25T04:07:56.740Z,35.99
2022-10-25T04:08:42.004Z,35.99
2022-10-25T04:09:27.269Z,35.99
2022-10-25T04:10:11.912Z,35.99
2022-10-25T04:10:57.217Z,35.99
2022-10-25T04:11:42.098Z,35.99
2022-10-25T04:12:27.497Z,35.99
2022-10-25T04:13:12.154Z,35.99
2022-10-25T04:13:57.430Z,35.99
2022-10-25T04:14:42.255Z,35.99
2022-10-25T04:15:27.716Z,35.99
2022-10-25T04:16:13.820Z,35.99
2022-10-25T04:16:57.320Z,35.99
2022-10-25T04:17:42.891Z,35.99
2022-10-25T04:18:27.739Z,35.99
2022-10-25T04:19:12.900Z,35.99
2022-10-25T04:19:57.547Z,35.99
2022-10-25T04:20:42.701Z,35.99
2022-10-25T04:21:27.914Z,35.99
2022-10-25T04:22:12.817Z,35.99
2022-10-25T04:22:57.979Z,35.99
2022-10-25T04:23:42.830Z,35.99
2022-10-25T04:24:28.393Z,35.99
2022-10-25T04:25:13.043Z,35.99
2022-10-25T04:25:57.999Z,35.99
2022-10-25T04:26:43.257Z,35.99
2022-10-25T04:27:28.340Z,35.99
2022-10-25T04:28:13.230Z,35.99
2022-10-25T04:28:58.147Z,35.99
2022-10-25T04:29:43.479Z,35.99
2022-10-25T04:30:28.639Z,35.99
2022-10-25T04:31:13.287Z,35.99
2022-10-25T04:31:58.244Z,35.86
2022-10-25T04:32:43.195Z,35.99
2022-10-25T04:33:28.513Z,35.99
2022-10-25T04:34:13.418Z,35.99
2022-10-25T04:34:58.590Z,35.99
2022-10-25T04:35:43.568Z,35.99
2022-10-25T04:36:28.583Z,35.99
2022-10-25T04:37:13.434Z,35.99
2022-10-25T04:37:58.595Z,35.99
2022-10-25T04:38:44.056Z,35.99
2022-10-25T04:39:29.060Z,35.99
2022-10-25T04:40:13.795Z,35.98
2022-10-25T04:40:59.055Z,35.99
2022-10-25T04:41:43.772Z,35.99
2022-10-25T04:42:29.095Z,35.99
2022-10-25T04:43:13.885Z,35.99
2022-10-25T04:43:59.044Z,35.98
2022-10-25T04:44:44.099Z,35.99
2022-10-25T04:45:29.259Z,35.99
2022-10-25T04:46:14.333Z,35.99
2022-10-25T04:46:59.352Z,35.99
2022-10-25T04:47:44.222Z,35.99
2022-10-25T04:48:29.587Z,35.99
2022-10-25T04:49:14.540Z,35.99
2022-10-25T04:49:59.406Z,35.99
2022-10-25T04:50:44.568Z,35.99
2022-10-25T04:51:29.911Z,35.97
2022-10-25T04:52:15.281Z,35.97
2022-10-25T04:52:59.492Z,35.98
2022-10-25T04:53:45.082Z,35.99
2022-10-25T04:54:29.939Z,35.99
2022-10-25T04:55:14.813Z,35.99
2022-10-25T04:55:59.947Z,35.99
2022-10-25T04:56:45.425Z,35.99
2022-10-25T04:57:30.097Z,35.99
2022-10-25T04:58:15.243Z,35.99
2022-10-25T04:59:00.080Z,35.99
2022-10-25T04:59:45.029Z,35.99
2022-10-25T05:00:29.888Z,35.98
2022-10-25T05:01:15.394Z,35.99
2022-10-25T05:02:00.397Z,35.99
2022-10-25T05:02:45.778Z,35.99
2022-10-25T05:03:30.310Z,35.99
2022-10-25T05:04:15.773Z,35.99
2022-10-25T05:05:01.099Z,35.99
2022-10-25T05:05:45.693Z,35.99
2022-10-25T05:06:31.250Z,35.99
2022-10-25T05:07:15.589Z,35.99
2022-10-25T05:08:00.968Z,35.99
2022-10-25T05:08:45.751Z,35.98
2022-10-25T05:09:30.855Z,35.98
2022-10-25T05:10:15.697Z,35.98
2022-10-25T05:11:00.867Z,35.98
2022-10-25T05:11:46.133Z,35.97
2022-10-25T05:12:31.086Z,35.98
2022-10-25T05:13:16.450Z,35.98
2022-10-25T05:14:01.416Z,35.98
2022-10-25T05:14:46.252Z,35.98
2022-10-25T05:15:31.209Z,35.97
2022-10-25T05:16:16.468Z,35.98
2022-10-25T05:17:01.423Z,35.98
2022-10-25T05:17:46.323Z,35.98
2022-10-25T05:18:31.647Z,35.98
2022-10-25T05:19:16.587Z,35.97
2022-10-25T05:20:01.571Z,35.98
2022-10-25T05:20:46.704Z,35.98
2022-10-25T05:21:31.757Z,35.98
2022-10-25T05:22:17.042Z,35.98
2022-10-25T05:23:01.979Z,35.98
2022-10-25T05:23:46.931Z,35.98
2022-10-25T05:24:31.697Z,35.97
2022-10-25T05:25:17.026Z,35.98
2022-10-25T05:26:01.893Z,35.98
2022-10-25T05:26:47.052Z,35.98
2022-10-25T05:27:32.007Z,35.98
2022-10-25T05:28:17.471Z,35.98
2022-10-25T05:29:03.595Z,35.98
2022-10-25T05:29:47.383Z,35.98
2022-10-25T05:30:32.127Z,35.98
2022-10-25T05:31:17.287Z,35.98
2022-10-25T05:32:02.133Z,35.98
2022-10-25T05:32:47.851Z,35.98
2022-10-25T05:33:32.705Z,35.98
2022-10-25T05:34:17.546Z,35.98
2022-10-25T05:35:02.576Z,35.98
2022-10-25T05:35:47.731Z,35.98
2022-10-25T05:36:32.792Z,35.97
2022-10-25T05:37:17.845Z,35.97
2022-10-25T05:38:02.589Z,35.98
2022-10-25T05:38:48.674Z,35.98
2022-10-25T05:39:33.112Z,35.98
2022-10-25T05:40:17.762Z,35.98
2022-10-25T05:41:03.581Z,35.97
2022-10-25T05:41:48.237Z,35.98
2022-10-25T05:42:33.107Z,35.98
2022-10-25T05:43:17.863Z,35.97
2022-10-25T05:44:03.151Z,35.98
2022-10-25T05:44:48.306Z,35.98
2022-10-25T05:45:33.359Z,35.98
2022-10-25T05:46:18.021Z,35.97
2022-10-25T05:47:03.279Z,35.98
2022-10-25T05:47:48.669Z,35.98
2022-10-25T05:48:33.697Z,35.98
2022-10-25T05:49:18.538Z,35.98
2022-10-25T05:50:04.221Z,35.98
2022-10-25T05:50:48.681Z,35.98
2022-10-25T05:51:35.614Z,35.99
2022-10-25T05:52:18.690Z,35.98
2022-10-25T05:53:03.723Z,35.99
2022-10-25T05:53:48.983Z,35.99
2022-10-25T05:54:34.142Z,35.99
2022-10-25T05:55:19.099Z,35.99
2022-10-25T05:56:04.154Z,35.99
2022-10-25T05:56:49.123Z,35.99
2022-10-25T05:57:34.393Z,35.99
2022-10-25T05:58:19.546Z,35.99
2022-10-25T05:59:04.478Z,35.99
2022-10-25T05:59:49.261Z,35.98
2022-10-25T06:00:34.298Z,35.99
2022-10-25T06:01:19.292Z,35.99
2022-10-25T06:02:04.423Z,35.99
2022-10-25T06:02:49.649Z,35.99
2022-10-25T06:03:34.510Z,35.99
2022-10-25T06:04:19.673Z,35.99
2022-10-25T06:05:04.831Z,35.98
2022-10-25T06:05:49.473Z,35.99
2022-10-25T06:06:34.876Z,35.99
2022-10-25T06:07:19.758Z,35.99
2022-10-25T06:08:05.058Z,35.99
2022-10-25T06:08:49.805Z,35.99
2022-10-25T06:09:34.966Z,35.99
2022-10-25T06:10:20.131Z,35.98
2022-10-25T06:11:05.180Z,35.99
2022-10-25T06:11:49.966Z,35.99
2022-10-25T06:12:35.086Z,35.99
2022-10-25T06:13:19.936Z,35.99
2022-10-25T06:14:05.239Z,35.99
2022-10-25T06:14:50.362Z,35.99
2022-10-25T06:15:35.410Z,35.99
2022-10-25T06:16:19.900Z,35.99
2022-10-25T06:17:05.425Z,35.99
2022-10-25T06:17:50.415Z,35.99
2022-10-25T06:18:35.302Z,35.99
2022-10-25T06:19:20.489Z,35.99
2022-10-25T06:20:05.874Z,35.99
2022-10-25T06:20:50.708Z,35.99
2022-10-25T06:21:35.798Z,35.99
2022-10-25T06:22:20.648Z,35.99
2022-10-25T06:23:07.997Z,35.99
2022-10-25T06:23:50.628Z,35.99
2022-10-25T06:24:35.998Z,35.99
2022-10-25T06:25:21.056Z,35.99
2022-10-25T06:26:06.458Z,35.99
2022-10-25T06:26:51.479Z,35.99
2022-10-25T06:27:35.500Z,35.99
2022-10-25T06:28:21.249Z,35.99
2022-10-25T06:29:06.111Z,35.99
2022-10-25T06:29:50.971Z,35.99
2022-10-25T06:30:36.542Z,35.99
2022-10-25T06:31:21.282Z,35.99
2022-10-25T06:32:06.243Z,35.99
2022-10-25T06:32:51.611Z,35.99
2022-10-25T06:33:36.623Z,35.99
2022-10-25T06:34:21.963Z,35.99
2022-10-25T06:35:06.779Z,35.99
2022-10-25T06:35:51.553Z,35.99
2022-10-25T06:36:36.904Z,35.99
2022-10-25T06:37:22.049Z,35.99
2022-10-25T06:38:07.024Z,35.99
2022-10-25T06:38:51.754Z,35.99
2022-10-25T06:39:37.020Z,35.99
2022-10-25T06:41:07.328Z,35.99
2022-10-25T06:41:52.389Z,35.99
2022-10-25T06:42:37.029Z,35.99
2022-10-25T06:43:22.571Z,35.99
2022-10-25T06:44:07.290Z,35.99
2022-10-25T06:44:52.198Z,35.99
2022-10-25T06:45:37.791Z,35.99
2022-10-25T06:46:23.818Z,35.99
2022-10-25T06:47:18.141Z,35.99
2022-10-25T06:47:52.669Z,35.99
2022-10-25T06:48:38.613Z,35.99
2022-10-25T06:49:22.701Z,35.99
2022-10-25T06:50:52.813Z,35.99
2022-10-25T06:51:37.921Z,35.99
2022-10-25T06:52:23.587Z,35.99
2022-10-25T06:53:07.825Z,35.99
2022-10-25T06:53:52.826Z,35.99
2022-10-25T06:54:37.602Z,35.99
2022-10-25T06:55:23.197Z,35.99
2022-10-25T06:56:09.451Z,35.99
2022-10-25T06:56:52.902Z,35.99
2022-10-25T06:57:38.066Z,35.99
2022-10-25T06:58:23.222Z,35.99
2022-10-25T06:59:08.184Z,35.99
2022-10-25T06:59:53.454Z,35.99
2022-10-25T07:00:37.859Z,35.99
2022-10-25T07:01:23.233Z,35.99
2022-10-25T07:02:08.415Z,35.99
2022-10-25T07:02:53.353Z,35.99
2022-10-25T07:03:38.514Z,35.99
2022-10-25T07:04:23.569Z,35.99
2022-10-25T07:05:08.319Z,35.99
2022-10-25T07:05:53.784Z,35.99
2022-10-25T07:06:38.448Z,35.99
2022-10-25T07:07:23.761Z,35.99
2022-10-25T07:08:09.068Z,35.99
2022-10-25T07:08:53.607Z,36.00
2022-10-25T07:09:38.657Z,36.00
2022-10-25T07:10:23.817Z,36.00
2022-10-25T07:11:10.819Z,36.00
2022-10-25T07:11:54.133Z,36.00
2022-10-25T07:12:39.050Z,36.00
2022-10-25T07:13:24.032Z,36.00
2022-10-25T07:14:09.207Z,36.00
2022-10-25T07:14:56.013Z,36.00
2022-10-25T07:15:41.421Z,36.00
2022-10-25T07:16:24.063Z,36.00
2022-10-25T07:17:09.354Z,36.00
2022-10-25T07:17:54.070Z,36.00
2022-10-25T07:18:39.432Z,36.00
2022-10-25T07:19:24.308Z,36.00
2022-10-25T07:20:09.340Z,36.00
2022-10-25T07:20:54.813Z,36.00
2022-10-25T07:21:39.867Z,36.00
2022-10-25T07:22:25.027Z,36.00
2022-10-25T07:23:09.991Z,36.00
2022-10-25T07:23:54.949Z,36.00
2022-10-25T07:24:39.610Z,35.99
2022-10-25T07:25:25.356Z,35.99
2022-10-25T07:26:10.410Z,35.99
2022-10-25T07:26:55.277Z,35.99
2022-10-25T07:27:40.152Z,35.99
2022-10-25T07:28:25.375Z,35.99
2022-10-25T07:29:10.367Z,35.99
2022-10-25T07:29:55.400Z,35.99
2022-10-25T07:30:40.752Z,35.99
2022-10-25T07:31:25.911Z,35.99
2022-10-25T07:32:10.701Z,35.99
2022-10-25T07:32:55.504Z,34.04
2022-10-25T07:33:40.279Z,35.97
2022-10-25T07:34:25.316Z,36.00
2022-10-25T07:35:10.681Z,35.75
2022-10-25T07:36:06.517Z,35.75
2022-10-25T07:36:41.101Z,35.75
2022-10-25T07:37:25.957Z,35.75
2022-10-25T07:38:11.210Z,35.75
2022-10-25T07:38:56.268Z,35.75
2022-10-25T07:39:41.429Z,35.75
2022-10-25T07:40:26.379Z,35.75
2022-10-25T07:41:11.233Z,35.75
2022-10-25T07:41:56.407Z,35.75
2022-10-25T07:42:41.309Z,35.75
2022-10-25T07:43:26.439Z,35.75
2022-10-25T07:44:16.679Z,35.75
2022-10-25T07:44:56.255Z,35.75
2022-10-25T07:45:41.271Z,35.75
2022-10-25T07:46:27.244Z,35.75
2022-10-25T07:47:11.171Z,35.75
2022-10-25T07:47:56.739Z,35.75
2022-10-25T07:48:41.636Z,35.75
2022-10-25T07:49:27.099Z,35.75
2022-10-25T07:50:11.605Z,35.75
2022-10-25T07:50:56.871Z,35.75
2022-10-25T07:51:42.020Z,35.75
2022-10-25T07:52:26.677Z,35.99
2022-10-25T07:53:12.554Z,35.99
2022-10-25T07:53:56.930Z,35.99
2022-10-25T07:55:28.021Z,35.99
2022-10-25T07:56:11.975Z,35.99
2022-10-25T07:56:59.161Z,35.99
2022-10-25T07:57:42.344Z,35.99
2022-10-25T07:58:27.118Z,31.77
2022-10-25T07:59:11.969Z,35.10
2022-10-25T07:59:57.338Z,36.00
2022-10-25T08:00:42.188Z,35.97
2022-10-25T08:01:27.393Z,36.00
2022-10-25T08:02:12.827Z,36.00
2022-10-25T08:02:57.615Z,36.00
2022-10-25T08:03:42.385Z,36.00
2022-10-25T08:04:27.490Z,36.00
2022-10-25T08:05:12.630Z,36.00
2022-10-25T08:05:57.600Z,36.00
2022-10-25T08:06:42.742Z,36.00
2022-10-25T08:07:27.796Z,36.00
2022-10-25T08:08:12.542Z,36.00
2022-10-25T08:09:00.093Z,36.00
2022-10-25T08:09:42.980Z,36.00
2022-10-25T08:10:27.826Z,36.00
2022-10-25T08:11:12.887Z,36.00
2022-10-25T08:11:57.928Z,36.00
2022-10-25T08:12:42.988Z,36.00
2022-10-25T08:13:28.148Z,36.00
2022-10-25T08:14:13.354Z,36.00
2022-10-25T08:14:58.256Z,36.00
2022-10-25T08:15:43.217Z,36.00
2022-10-25T08:16:28.302Z,36.00
2022-10-25T08:17:13.604Z,36.00
2022-10-25T08:17:58.385Z,36.00
2022-10-25T08:18:43.441Z,36.00
2022-10-25T08:19:28.599Z,36.00
2022-10-25T08:20:13.621Z,36.00
2022-10-25T08:21:02.227Z,36.00
2022-10-25T08:21:44.424Z,35.99
2022-10-25T08:22:28.824Z,36.00
2022-10-25T08:23:14.291Z,36.00
2022-10-25T08:23:59.140Z,36.00
2022-10-25T08:24:43.896Z,36.00
2022-10-25T08:25:28.945Z,36.00
2022-10-25T08:26:14.165Z,36.00
2022-10-25T08:26:59.374Z,36.00
2022-10-25T08:27:44.392Z,36.00
2022-10-25T08:28:29.174Z,36.00
2022-10-25T08:29:14.332Z,36.00
2022-10-25T08:29:59.384Z,36.00
2022-10-25T08:30:44.467Z,36.00
2022-10-25T08:31:29.740Z,36.00
2022-10-25T08:32:14.842Z,36.00
2022-10-25T08:32:59.923Z,36.00
2022-10-25T08:33:45.182Z,36.00
2022-10-25T08:34:32.410Z,36.00
2022-10-25T08:35:15.190Z,36.00
2022-10-25T08:36:00.250Z,36.00
2022-10-25T08:36:45.199Z,36.00
2022-10-25T08:37:30.361Z,36.00
2022-10-25T08:38:15.312Z,36.00
2022-10-25T08:39:00.163Z,35.45
2022-10-25T08:39:44.812Z,35.45
2022-10-25T08:40:30.000Z,36.00
2022-10-25T08:41:15.332Z,36.00
2022-10-25T08:42:00.703Z,36.00
2022-10-25T08:42:45.551Z,36.00
2022-10-25T08:43:30.130Z,36.00
2022-10-25T08:44:15.180Z,36.00
2022-10-25T08:45:00.524Z,36.00
2022-10-25T08:45:47.126Z,36.00
2022-10-25T08:46:30.525Z,36.00
2022-10-25T08:47:15.479Z,36.00
2022-10-25T08:48:00.486Z,36.00
2022-10-25T08:48:45.162Z,35.99
2022-10-25T08:49:30.754Z,36.00
2022-10-25T08:50:15.705Z,36.00
2022-10-25T08:51:00.861Z,36.00
2022-10-25T08:51:45.535Z,36.00
2022-10-25T08:52:31.183Z,35.99
2022-10-25T08:53:16.289Z,35.99
2022-10-25T08:54:01.091Z,35.99
2022-10-25T08:54:45.943Z,35.99
2022-10-25T08:55:30.891Z,35.99
2022-10-25T08:56:16.923Z,35.99
2022-10-25T08:57:14.303Z,35.99
2022-10-25T08:57:46.367Z,35.99
2022-10-25T08:58:30.814Z,35.99
2022-10-25T08:59:15.872Z,35.99
2022-10-25T09:00:01.906Z,35.99
2022-10-25T09:00:46.902Z,35.99
2022-10-25T09:01:32.102Z,35.99
2022-10-25T09:02:17.070Z,35.99
2022-10-25T09:03:04.333Z,35.99
2022-10-25T09:03:47.198Z,27.40
2022-10-25T09:04:31.775Z,26.18
2022-10-25T09:05:16.728Z,30.08
2022-10-25T09:06:01.797Z,30.97
2022-10-25T09:06:46.943Z,29.08
2022-10-25T09:07:32.826Z,22.81
2022-10-25T09:08:16.989Z,26.18
2022-10-25T09:09:04.491Z,26.18
2022-10-25T09:09:47.172Z,27.40
2022-10-25T09:10:31.788Z,27.99
2022-10-25T09:11:17.902Z,30.08
2022-10-25T09:12:02.132Z,30.54
2022-10-25T09:12:47.294Z,35.29
2022-10-25T09:13:32.081Z,35.63
2022-10-25T09:14:17.237Z,35.90
2022-10-25T09:15:02.599Z,36.00
2022-10-25T09:15:48.088Z,36.00
2022-10-25T09:16:32.372Z,36.00
2022-10-25T09:17:18.114Z,36.00
2022-10-25T09:18:03.085Z,36.00
2022-10-25T09:18:48.366Z,36.00
2022-10-25T09:19:33.065Z,36.00
2022-10-25T09:20:17.922Z,36.00
2022-10-25T09:21:02.866Z,36.00
2022-10-25T09:21:47.874Z,36.00
2022-10-25T09:22:33.132Z,36.00
2022-10-25T09:23:18.114Z,36.00
2022-10-25T09:24:03.050Z,36.00
2022-10-25T09:24:48.400Z,36.00
2022-10-25T09:25:33.360Z,35.99
2022-10-25T09:26:18.209Z,36.00
2022-10-25T09:27:03.267Z,36.00
2022-10-25T09:27:48.910Z,36.00
2022-10-25T09:28:33.278Z,36.00
2022-10-25T09:29:18.335Z,36.00
2022-10-25T09:30:06.521Z,36.00
2022-10-25T09:30:48.444Z,36.00
2022-10-25T09:31:33.375Z,36.00
2022-10-25T09:32:18.581Z,36.00
2022-10-25T09:33:03.767Z,36.00
2022-10-25T09:33:48.571Z,36.00
2022-10-25T09:34:33.932Z,36.00
2022-10-25T09:35:19.585Z,36.00
2022-10-25T09:36:04.046Z,35.99
2022-10-25T09:36:48.827Z,35.99
2022-10-25T09:37:33.960Z,35.99
2022-10-25T09:38:18.902Z,35.99
2022-10-25T09:39:04.383Z,35.99
2022-10-25T09:39:49.065Z,35.99
2022-10-25T09:40:34.179Z,35.99
2022-10-25T09:41:19.187Z,35.99
2022-10-25T09:42:04.594Z,35.99
2022-10-25T09:42:49.549Z,35.99